Time;durP1;ratioP1;P1;durP2;ratioP2;P2;SDS_P1;SDS_P2;PMS_P1;PMS_P2;Temp;Humidity;BMP_temperature;BMP_pressure;BME280_temperature;BME280_humidity;BME280_pressure;Samples;Min_cycle;Max_cycle;Signal;HPM_P1;HPM_P2
2022/07/18 00:00:00;;;;;;;0.1;0.1;;;;;;;21.1;65.7;102150;;;;
2022/07/18 00:01:00;;;;;;;0.1;0.1;;;;;;;21.1;65.7;102150;;;;
2022/07/18 00:02:02;;;;;;;0.1;0.1;;;;;;;21.0;66.0;102150;;;;
2022/07/18 00:03:00;;;;;;;0.1;0.1;;;;;;;21.0;66.0;102150;;;;
2022/07/18 00:04:00;;;;;;;0.1;0.1;;;;;;;21.0;67.8;102150;;;;
2022/07/18 00:05:00;;;;;;;0.1;0.1;;;;;;;21.0;67.8;102150;;;;
2022/07/18 00:06:00;;;;;;;0.1;0.1;;;;;;;21.0;66.6;102150;;;;
2022/07/18 00:07:00;;;;;;;0.1;0.1;;;;;;;21.0;66.6;102150;;;;
2022/07/18 00:08:00;;;;;;;0.1;0.1;;;;;;;21.0;66.6;102150;;;;
2022/07/18 00:09:00;;;;;;;0.1;0.1;;;;;;;21.0;66.6;102150;;;;
2022/07/18 00:10:00;;;;;;;0.1;0.1;;;;;;;20.9;66.1;102150;;;;
2022/07/18 00:11:00;;;;;;;0.1;0.1;;;;;;;20.9;66.1;102150;;;;
2022/07/18 00:12:00;;;;;;;0.1;0.1;;;;;;;20.9;66.5;102150;;;;
2022/07/18 00:13:00;;;;;;;0.1;0.1;;;;;;;20.9;66.5;102150;;;;
2022/07/18 00:14:00;;;;;;;0.1;0.1;;;;;;;20.8;67.3;102150;;;;
2022/07/18 00:15:00;;;;;;;0.1;0.1;;;;;;;20.8;67.3;102150;;;;
2022/07/18 00:16:00;;;;;;;0.1;0.1;;;;;;;20.8;67.2;102140;;;;
2022/07/18 00:17:00;;;;;;;0.1;0.1;;;;;;;20.8;67.2;102140;;;;
2022/07/18 00:18:00;;;;;;;0.1;0.1;;;;;;;20.7;67.5;102140;;;;
2022/07/18 00:19:02;;;;;;;0.1;0.1;;;;;;;20.7;67.5;102140;;;;
2022/07/18 00:20:00;;;;;;;0.1;0.1;;;;;;;20.7;66.9;102140;;;;
2022/07/18 00:21:00;;;;;;;0.1;0.1;;;;;;;20.7;66.9;102140;;;;
2022/07/18 00:22:00;;;;;;;0.2;0.2;;;;;;;20.8;66.5;102140;;;;
2022/07/18 00:23:00;;;;;;;0.2;0.2;;;;;;;20.8;66.5;102140;;;;
2022/07/18 00:24:00;;;;;;;0.2;0.2;;;;;;;20.7;67.5;102140;;;;
2022/07/18 00:25:00;;;;;;;0.2;0.2;;;;;;;20.7;67.5;102140;;;;
2022/07/18 00:26:00;;;;;;;0.2;0.2;;;;;;;20.6;68.1;102130;;;;
2022/07/18 00:27:00;;;;;;;0.2;0.2;;;;;;;20.6;68.1;102130;;;;
2022/07/18 00:28:00;;;;;;;0.2;0.2;;;;;;;20.6;67.8;102130;;;;
2022/07/18 00:29:00;;;;;;;0.2;0.2;;;;;;;20.6;67.8;102130;;;;
2022/07/18 00:30:00;;;;;;;0.2;0.2;;;;;;;20.5;69.3;102130;;;;
2022/07/18 00:31:00;;;;;;;0.2;0.2;;;;;;;20.5;69.3;102130;;;;
2022/07/18 00:32:00;;;;;;;0.2;0.2;;;;;;;20.5;68.0;102120;;;;
2022/07/18 00:33:00;;;;;;;0.2;0.2;;;;;;;20.5;68.0;102120;;;;
2022/07/18 00:34:00;;;;;;;0.2;0.2;;;;;;;20.5;68.7;102130;;;;
2022/07/18 00:35:00;;;;;;;0.2;0.2;;;;;;;20.5;68.7;102130;;;;
2022/07/18 00:36:00;;;;;;;0.2;0.2;;;;;;;20.4;70.3;102130;;;;
2022/07/18 00:37:00;;;;;;;0.2;0.2;;;;;;;20.4;70.3;102130;;;;
2022/07/18 00:38:01;;;;;;;0.2;0.2;;;;;;;20.4;68.9;102130;;;;
2022/07/18 00:39:00;;;;;;;0.2;0.2;;;;;;;20.4;68.9;102130;;;;
2022/07/18 00:40:00;;;;;;;0.2;0.2;;;;;;;20.4;69.9;102130;;;;
2022/07/18 00:41:00;;;;;;;0.2;0.2;;;;;;;20.4;69.9;102130;;;;
2022/07/18 00:42:00;;;;;;;0.2;0.2;;;;;;;20.4;69.2;102130;;;;
2022/07/18 00:43:00;;;;;;;0.2;0.2;;;;;;;20.4;69.2;102130;;;;
2022/07/18 00:44:00;;;;;;;0.2;0.2;;;;;;;20.4;68.3;102130;;;;
2022/07/18 00:45:00;;;;;;;0.2;0.2;;;;;;;20.4;68.3;102130;;;;
2022/07/18 00:46:00;;;;;;;0.2;0.2;;;;;;;20.3;68.8;102130;;;;
2022/07/18 00:47:01;;;;;;;0.2;0.2;;;;;;;20.3;68.8;102130;;;;
2022/07/18 00:48:04;;;;;;;0.2;0.2;;;;;;;20.3;69.4;102120;;;;
2022/07/18 00:49:00;;;;;;;0.2;0.2;;;;;;;20.3;69.4;102120;;;;
2022/07/18 00:50:02;;;;;;;0.2;0.2;;;;;;;20.3;70.7;102120;;;;
2022/07/18 00:51:00;;;;;;;0.2;0.2;;;;;;;20.3;70.7;102120;;;;
2022/07/18 00:52:00;;;;;;;0.2;0.2;;;;;;;20.3;69.4;102120;;;;
2022/07/18 00:53:00;;;;;;;0.2;0.2;;;;;;;20.3;69.4;102120;;;;
2022/07/18 00:54:00;;;;;;;0.2;0.2;;;;;;;20.2;69.6;102120;;;;
2022/07/18 00:55:00;;;;;;;0.2;0.2;;;;;;;20.2;69.6;102120;;;;
2022/07/18 00:56:01;;;;;;;0.2;0.2;;;;;;;20.2;70.9;102120;;;;
2022/07/18 00:57:00;;;;;;;0.2;0.2;;;;;;;20.2;70.9;102120;;;;
2022/07/18 00:58:00;;;;;;;0.2;0.2;;;;;;;20.2;69.4;102120;;;;
2022/07/18 00:59:00;;;;;;;0.2;0.2;;;;;;;20.2;69.4;102120;;;;
2022/07/18 01:02:00;;;;;;;0.1;0.1;;;;;;;20.1;70.1;102110;;;;
2022/07/18 01:03:00;;;;;;;0.1;0.1;;;;;;;20.1;70.1;102110;;;;
2022/07/18 01:04:00;;;;;;;0.1;0.1;;;;;;;20.1;70.6;102110;;;;
2022/07/18 01:05:00;;;;;;;0.1;0.1;;;;;;;20.1;70.6;102110;;;;
2022/07/18 01:06:01;;;;;;;0.1;0.1;;;;;;;20.0;72.7;102110;;;;
2022/07/18 01:07:00;;;;;;;0.1;0.1;;;;;;;20.0;72.7;102110;;;;
2022/07/18 01:08:00;;;;;;;0.1;0.1;;;;;;;20.0;71.7;102110;;;;
2022/07/18 01:09:00;;;;;;;0.1;0.1;;;;;;;20.0;71.7;102110;;;;
2022/07/18 01:10:00;;;;;;;0.1;0.1;;;;;;;20.0;71.2;102110;;;;
2022/07/18 01:11:00;;;;;;;0.1;0.1;;;;;;;20.0;71.2;102110;;;;
2022/07/18 01:12:00;;;;;;;0.1;0.1;;;;;;;19.9;72.6;102110;;;;
2022/07/18 01:13:00;;;;;;;0.1;0.1;;;;;;;19.9;72.6;102110;;;;
2022/07/18 01:14:03;;;;;;;0.1;0.1;;;;;;;19.9;72.3;102110;;;;
2022/07/18 01:15:00;;;;;;;0.1;0.1;;;;;;;19.9;72.3;102110;;;;
2022/07/18 01:16:00;;;;;;;0.1;0.1;;;;;;;19.8;74.9;102100;;;;
2022/07/18 01:17:00;;;;;;;0.1;0.1;;;;;;;19.8;74.9;102100;;;;
2022/07/18 01:18:00;;;;;;;0.1;0.1;;;;;;;19.8;73.3;102110;;;;
2022/07/18 01:19:00;;;;;;;0.1;0.1;;;;;;;19.8;73.3;102110;;;;
2022/07/18 01:20:00;;;;;;;0.1;0.1;;;;;;;19.8;72.4;102110;;;;
2022/07/18 01:21:00;;;;;;;0.1;0.1;;;;;;;19.8;72.4;102110;;;;
2022/07/18 01:22:00;;;;;;;0.2;0.2;;;;;;;19.8;73.0;102100;;;;
2022/07/18 01:23:01;;;;;;;0.2;0.2;;;;;;;19.8;73.0;102100;;;;
2022/07/18 01:24:00;;;;;;;0.2;0.2;;;;;;;19.8;73.0;102100;;;;
2022/07/18 01:25:00;;;;;;;0.2;0.2;;;;;;;19.8;73.0;102100;;;;
2022/07/18 01:26:00;;;;;;;0.2;0.2;;;;;;;19.7;74.7;102100;;;;
2022/07/18 01:27:00;;;;;;;0.2;0.2;;;;;;;19.7;74.7;102100;;;;
2022/07/18 01:28:00;;;;;;;0.2;0.2;;;;;;;19.7;74.6;102100;;;;
2022/07/18 01:29:00;;;;;;;0.2;0.2;;;;;;;19.7;74.6;102100;;;;
2022/07/18 01:30:00;;;;;;;0.2;0.2;;;;;;;19.7;74.3;102100;;;;
2022/07/18 01:31:00;;;;;;;0.2;0.2;;;;;;;19.7;74.3;102100;;;;
2022/07/18 01:32:04;;;;;;;0.2;0.2;;;;;;;19.6;74.9;102100;;;;
2022/07/18 01:33:01;;;;;;;0.2;0.2;;;;;;;19.6;74.9;102100;;;;
2022/07/18 01:34:00;;;;;;;0.2;0.2;;;;;;;19.6;75.0;102100;;;;
2022/07/18 01:35:00;;;;;;;0.2;0.2;;;;;;;19.6;75.0;102100;;;;
2022/07/18 01:36:01;;;;;;;0.2;0.2;;;;;;;19.6;74.9;102100;;;;
2022/07/18 01:37:00;;;;;;;0.2;0.2;;;;;;;19.6;74.9;102100;;;;
2022/07/18 01:38:00;;;;;;;0.2;0.2;;;;;;;19.6;75.2;102100;;;;
2022/07/18 01:39:00;;;;;;;0.2;0.2;;;;;;;19.6;75.2;102100;;;;
2022/07/18 01:40:00;;;;;;;0.2;0.2;;;;;;;19.5;81.0;102100;;;;
2022/07/18 01:41:00;;;;;;;0.2;0.2;;;;;;;19.5;81.0;102100;;;;
2022/07/18 01:42:01;;;;;;;0.2;0.2;;;;;;;19.5;77.3;102090;;;;
2022/07/18 01:43:00;;;;;;;0.2;0.2;;;;;;;19.5;77.3;102090;;;;
2022/07/18 01:44:00;;;;;;;0.2;0.2;;;;;;;19.5;76.2;102090;;;;
2022/07/18 01:45:00;;;;;;;0.2;0.2;;;;;;;19.5;76.2;102090;;;;
2022/07/18 01:46:01;;;;;;;0.2;0.2;;;;;;;19.5;75.3;102090;;;;
2022/07/18 01:47:00;;;;;;;0.2;0.2;;;;;;;19.5;75.3;102090;;;;
2022/07/18 01:48:00;;;;;;;0.2;0.2;;;;;;;19.4;79.4;102090;;;;
2022/07/18 01:49:00;;;;;;;0.2;0.2;;;;;;;19.4;79.4;102090;;;;
2022/07/18 01:50:00;;;;;;;0.2;0.2;;;;;;;19.4;79.1;102090;;;;
2022/07/18 01:51:00;;;;;;;0.2;0.2;;;;;;;19.4;79.1;102090;;;;
2022/07/18 01:52:00;;;;;;;0.2;0.2;;;;;;;19.4;78.4;102090;;;;
2022/07/18 01:53:00;;;;;;;0.2;0.2;;;;;;;19.4;78.4;102090;;;;
2022/07/18 01:54:01;;;;;;;0.2;0.2;;;;;;;19.4;76.0;102090;;;;
2022/07/18 01:55:00;;;;;;;0.2;0.2;;;;;;;19.4;76.0;102090;;;;
2022/07/18 01:56:00;;;;;;;0.2;0.2;;;;;;;19.3;76.7;102090;;;;
2022/07/18 01:57:01;;;;;;;0.2;0.2;;;;;;;19.3;76.7;102090;;;;
2022/07/18 01:58:00;;;;;;;0.2;0.2;;;;;;;19.3;75.4;102090;;;;
2022/07/18 01:59:01;;;;;;;0.2;0.2;;;;;;;19.3;75.4;102090;;;;
2022/07/18 02:00:00;;;;;;;0.2;0.2;;;;;;;19.3;75.4;102100;;;;
2022/07/18 02:01:00;;;;;;;0.2;0.2;;;;;;;19.3;75.4;102100;;;;
2022/07/18 02:02:00;;;;;;;0.8;0.8;;;;;;;19.4;74.9;102090;;;;
2022/07/18 02:03:00;;;;;;;0.8;0.8;;;;;;;19.4;74.9;102090;;;;
2022/07/18 02:04:00;;;;;;;0.8;0.8;;;;;;;19.1;83.6;102090;;;;
2022/07/18 02:05:00;;;;;;;0.8;0.8;;;;;;;19.1;83.6;102090;;;;
2022/07/18 02:06:00;;;;;;;0.8;0.8;;;;;;;19.0;83.5;102090;;;;
2022/07/18 02:07:00;;;;;;;0.8;0.8;;;;;;;19.0;83.5;102090;;;;
2022/07/18 02:08:00;;;;;;;0.8;0.8;;;;;;;19.1;82.7;102090;;;;
2022/07/18 02:09:00;;;;;;;0.8;0.8;;;;;;;19.1;82.7;102090;;;;
2022/07/18 02:10:01;;;;;;;0.8;0.8;;;;;;;19.1;79.1;102080;;;;
2022/07/18 02:11:00;;;;;;;0.8;0.8;;;;;;;19.1;79.1;102080;;;;
2022/07/18 02:12:00;;;;;;;0.8;0.8;;;;;;;19.1;78.2;102090;;;;
2022/07/18 02:13:00;;;;;;;0.8;0.8;;;;;;;19.1;78.2;102090;;;;
2022/07/18 02:14:00;;;;;;;0.8;0.8;;;;;;;19.1;77.8;102090;;;;
2022/07/18 02:15:00;;;;;;;0.8;0.8;;;;;;;19.1;77.8;102090;;;;
2022/07/18 02:16:00;;;;;;;0.8;0.8;;;;;;;19.0;80.6;102090;;;;
2022/07/18 02:17:00;;;;;;;0.8;0.8;;;;;;;19.0;80.6;102090;;;;
2022/07/18 02:18:00;;;;;;;0.8;0.8;;;;;;;19.0;83.2;102080;;;;
2022/07/18 02:19:00;;;;;;;0.8;0.8;;;;;;;19.0;83.2;102080;;;;
2022/07/18 02:20:00;;;;;;;0.8;0.8;;;;;;;19.0;80.7;102080;;;;
2022/07/18 02:21:00;;;;;;;0.8;0.8;;;;;;;19.0;80.7;102080;;;;
2022/07/18 02:22:00;;;;;;;0.4;0.4;;;;;;;19.1;79.7;102070;;;;
2022/07/18 02:23:00;;;;;;;0.4;0.4;;;;;;;19.1;79.7;102070;;;;
2022/07/18 02:24:00;;;;;;;0.4;0.4;;;;;;;19.0;81.3;102070;;;;
2022/07/18 02:25:00;;;;;;;0.4;0.4;;;;;;;19.0;81.3;102070;;;;
2022/07/18 02:26:00;;;;;;;0.4;0.4;;;;;;;19.0;79.2;102060;;;;
2022/07/18 02:27:00;;;;;;;0.4;0.4;;;;;;;19.0;79.2;102060;;;;
2022/07/18 02:28:00;;;;;;;0.4;0.4;;;;;;;19.0;80.3;102060;;;;
2022/07/18 02:29:00;;;;;;;0.4;0.4;;;;;;;19.0;80.3;102060;;;;
2022/07/18 02:30:00;;;;;;;0.4;0.4;;;;;;;18.9;81.5;102060;;;;
2022/07/18 02:31:00;;;;;;;0.4;0.4;;;;;;;18.9;81.5;102060;;;;
2022/07/18 02:32:00;;;;;;;0.4;0.4;;;;;;;18.9;80.9;102060;;;;
2022/07/18 02:33:00;;;;;;;0.4;0.4;;;;;;;18.9;80.9;102060;;;;
2022/07/18 02:34:00;;;;;;;0.4;0.4;;;;;;;18.9;80.1;102060;;;;
2022/07/18 02:35:00;;;;;;;0.4;0.4;;;;;;;18.9;80.1;102060;;;;
2022/07/18 02:36:00;;;;;;;0.4;0.4;;;;;;;18.8;84.5;102060;;;;
2022/07/18 02:37:00;;;;;;;0.4;0.4;;;;;;;18.8;84.5;102060;;;;
2022/07/18 02:38:00;;;;;;;0.4;0.4;;;;;;;18.8;81.4;102070;;;;
2022/07/18 02:39:00;;;;;;;0.4;0.4;;;;;;;18.8;81.4;102070;;;;
2022/07/18 02:40:00;;;;;;;0.4;0.4;;;;;;;18.8;86.6;102070;;;;
2022/07/18 02:41:00;;;;;;;0.4;0.4;;;;;;;18.8;86.6;102070;;;;
2022/07/18 02:42:00;;;;;;;0.4;0.4;;;;;;;18.6;86.6;102070;;;;
2022/07/18 02:43:00;;;;;;;0.4;0.4;;;;;;;18.6;86.6;102070;;;;
2022/07/18 02:44:00;;;;;;;0.4;0.4;;;;;;;18.7;81.6;102060;;;;
2022/07/18 02:45:00;;;;;;;0.4;0.4;;;;;;;18.7;81.6;102060;;;;
2022/07/18 02:46:00;;;;;;;0.4;0.4;;;;;;;18.7;82.9;102070;;;;
2022/07/18 02:47:00;;;;;;;0.4;0.4;;;;;;;18.7;82.9;102070;;;;
2022/07/18 02:48:00;;;;;;;0.4;0.4;;;;;;;18.7;84.1;102070;;;;
2022/07/18 02:49:00;;;;;;;0.4;0.4;;;;;;;18.7;84.1;102070;;;;
2022/07/18 02:50:00;;;;;;;0.4;0.4;;;;;;;18.7;83.2;102070;;;;
2022/07/18 02:51:00;;;;;;;0.4;0.4;;;;;;;18.7;83.2;102070;;;;
2022/07/18 02:52:01;;;;;;;0.4;0.4;;;;;;;18.7;83.4;102070;;;;
2022/07/18 02:53:00;;;;;;;0.4;0.4;;;;;;;18.7;83.4;102070;;;;
2022/07/18 02:54:00;;;;;;;0.4;0.4;;;;;;;18.5;85.8;102070;;;;
2022/07/18 02:55:01;;;;;;;0.4;0.4;;;;;;;18.5;85.8;102070;;;;
2022/07/18 02:56:00;;;;;;;0.4;0.4;;;;;;;18.6;85.8;102060;;;;
2022/07/18 02:57:00;;;;;;;0.4;0.4;;;;;;;18.6;85.8;102060;;;;
2022/07/18 02:58:00;;;;;;;0.4;0.4;;;;;;;18.6;84.7;102070;;;;
2022/07/18 02:59:00;;;;;;;0.4;0.4;;;;;;;18.6;84.7;102070;;;;
2022/07/18 03:00:00;;;;;;;0.4;0.4;;;;;;;18.5;93.5;102060;;;;
2022/07/18 03:01:00;;;;;;;0.4;0.4;;;;;;;18.5;93.5;102060;;;;
2022/07/18 03:02:00;;;;;;;0.3;0.3;;;;;;;18.5;89.4;102060;;;;
2022/07/18 03:03:00;;;;;;;0.3;0.3;;;;;;;18.5;89.4;102060;;;;
2022/07/18 03:04:02;;;;;;;0.3;0.3;;;;;;;18.5;84.4;102060;;;;
2022/07/18 03:05:00;;;;;;;0.3;0.3;;;;;;;18.5;84.4;102060;;;;
2022/07/18 03:06:00;;;;;;;0.3;0.3;;;;;;;18.5;86.4;102060;;;;
2022/07/18 03:07:00;;;;;;;0.3;0.3;;;;;;;18.5;86.4;102060;;;;
2022/07/18 03:08:00;;;;;;;0.3;0.3;;;;;;;18.5;87.6;102060;;;;
2022/07/18 03:09:00;;;;;;;0.3;0.3;;;;;;;18.5;87.6;102060;;;;
2022/07/18 03:10:00;;;;;;;0.3;0.3;;;;;;;18.5;85.1;102060;;;;
2022/07/18 03:11:00;;;;;;;0.3;0.3;;;;;;;18.5;85.1;102060;;;;
2022/07/18 03:12:00;;;;;;;0.3;0.3;;;;;;;18.5;87.6;102060;;;;
2022/07/18 03:13:00;;;;;;;0.3;0.3;;;;;;;18.5;87.6;102060;;;;
2022/07/18 03:14:00;;;;;;;0.3;0.3;;;;;;;18.4;86.4;102050;;;;
2022/07/18 03:15:00;;;;;;;0.3;0.3;;;;;;;18.4;86.4;102050;;;;
2022/07/18 03:16:00;;;;;;;0.3;0.3;;;;;;;18.4;86.4;102050;;;;
2022/07/18 03:17:00;;;;;;;0.3;0.3;;;;;;;18.4;86.4;102050;;;;
2022/07/18 03:18:00;;;;;;;0.3;0.3;;;;;;;18.4;85.8;102050;;;;
2022/07/18 03:19:00;;;;;;;0.3;0.3;;;;;;;18.4;85.8;102050;;;;
2022/07/18 03:20:00;;;;;;;0.3;0.3;;;;;;;18.3;87.6;102050;;;;
2022/07/18 03:21:00;;;;;;;0.3;0.3;;;;;;;18.3;87.6;102050;;;;
2022/07/18 03:22:00;;;;;;;0.3;0.3;;;;;;;18.3;88.6;102050;;;;
2022/07/18 03:23:05;;;;;;;0.3;0.3;;;;;;;18.3;88.6;102050;;;;
2022/07/18 03:24:00;;;;;;;0.3;0.3;;;;;;;18.2;90.6;102040;;;;
2022/07/18 03:25:00;;;;;;;0.3;0.3;;;;;;;18.2;90.6;102040;;;;
2022/07/18 03:26:00;;;;;;;0.3;0.3;;;;;;;18.1;92.5;102040;;;;
2022/07/18 03:27:00;;;;;;;0.3;0.3;;;;;;;18.1;92.5;102040;;;;
2022/07/18 03:28:00;;;;;;;0.3;0.3;;;;;;;18.1;91.6;102040;;;;
2022/07/18 03:29:00;;;;;;;0.3;0.3;;;;;;;18.1;91.6;102040;;;;
2022/07/18 03:30:00;;;;;;;0.3;0.3;;;;;;;18.0;96.2;102040;;;;
2022/07/18 03:31:00;;;;;;;0.3;0.3;;;;;;;18.0;96.2;102040;;;;
2022/07/18 03:32:00;;;;;;;0.3;0.3;;;;;;;17.9;98.6;102040;;;;
2022/07/18 03:33:06;;;;;;;0.3;0.3;;;;;;;17.9;98.6;102040;;;;
2022/07/18 03:34:00;;;;;;;0.3;0.3;;;;;;;18.0;93.2;102040;;;;
2022/07/18 03:35:00;;;;;;;0.3;0.3;;;;;;;18.0;93.2;102040;;;;
2022/07/18 03:36:00;;;;;;;0.3;0.3;;;;;;;18.0;95.2;102040;;;;
2022/07/18 03:37:00;;;;;;;0.3;0.3;;;;;;;18.0;95.2;102040;;;;
2022/07/18 03:38:00;;;;;;;0.3;0.3;;;;;;;18.1;92.3;102030;;;;
2022/07/18 03:39:00;;;;;;;0.3;0.3;;;;;;;18.1;92.3;102030;;;;
2022/07/18 03:40:00;;;;;;;0.3;0.3;;;;;;;18.1;92.0;102030;;;;
2022/07/18 03:41:00;;;;;;;0.3;0.3;;;;;;;18.1;92.0;102030;;;;
2022/07/18 03:42:00;;;;;;;0.3;0.3;;;;;;;18.1;91.0;102030;;;;
2022/07/18 03:43:00;;;;;;;0.3;0.3;;;;;;;18.1;91.0;102030;;;;
2022/07/18 03:44:00;;;;;;;0.3;0.3;;;;;;;18.1;91.2;102030;;;;
2022/07/18 03:45:00;;;;;;;0.3;0.3;;;;;;;18.1;91.2;102030;;;;
2022/07/18 03:46:00;;;;;;;0.3;0.3;;;;;;;18.1;92.1;102030;;;;
2022/07/18 03:47:00;;;;;;;0.3;0.3;;;;;;;18.1;92.1;102030;;;;
2022/07/18 03:48:00;;;;;;;0.3;0.3;;;;;;;18.0;94.2;102030;;;;
2022/07/18 03:49:00;;;;;;;0.3;0.3;;;;;;;18.0;94.2;102030;;;;
2022/07/18 03:50:00;;;;;;;0.3;0.3;;;;;;;18.0;93.9;102030;;;;
2022/07/18 03:51:00;;;;;;;0.3;0.3;;;;;;;18.0;93.9;102030;;;;
2022/07/18 03:52:00;;;;;;;0.3;0.3;;;;;;;17.9;94.7;102030;;;;
2022/07/18 03:53:00;;;;;;;0.3;0.3;;;;;;;17.9;94.7;102030;;;;
2022/07/18 03:54:00;;;;;;;0.3;0.3;;;;;;;18.0;93.4;102030;;;;
2022/07/18 03:55:01;;;;;;;0.3;0.3;;;;;;;18.0;93.4;102030;;;;
2022/07/18 03:56:00;;;;;;;0.3;0.3;;;;;;;18.0;92.9;102030;;;;
2022/07/18 03:57:00;;;;;;;0.3;0.3;;;;;;;18.0;92.9;102030;;;;
2022/07/18 03:58:00;;;;;;;0.3;0.3;;;;;;;18.0;98.1;102030;;;;
2022/07/18 03:59:00;;;;;;;0.3;0.3;;;;;;;18.0;98.1;102030;;;;
2022/07/18 04:00:00;;;;;;;0.3;0.3;;;;;;;17.9;97.6;102030;;;;
2022/07/18 04:01:00;;;;;;;0.3;0.3;;;;;;;17.9;97.6;102030;;;;
2022/07/18 04:02:00;;;;;;;0.2;0.2;;;;;;;18.0;95.5;102020;;;;
2022/07/18 04:03:05;;;;;;;0.2;0.2;;;;;;;18.0;95.5;102020;;;;
2022/07/18 04:04:00;;;;;;;0.2;0.2;;;;;;;17.9;98.2;102020;;;;
2022/07/18 04:05:00;;;;;;;0.2;0.2;;;;;;;17.9;98.2;102020;;;;
2022/07/18 04:06:00;;;;;;;0.2;0.2;;;;;;;17.9;99.5;102020;;;;
2022/07/18 04:07:00;;;;;;;0.2;0.2;;;;;;;17.9;99.5;102020;;;;
2022/07/18 04:08:00;;;;;;;0.2;0.2;;;;;;;17.7;100.0;102030;;;;
2022/07/18 04:09:00;;;;;;;0.2;0.2;;;;;;;17.7;100.0;102030;;;;
2022/07/18 04:10:00;;;;;;;0.2;0.2;;;;;;;17.8;100.0;102030;;;;
2022/07/18 04:11:00;;;;;;;0.2;0.2;;;;;;;17.8;100.0;102030;;;;
2022/07/18 04:12:00;;;;;;;0.2;0.2;;;;;;;17.9;96.5;102030;;;;
2022/07/18 04:13:00;;;;;;;0.2;0.2;;;;;;;17.9;96.5;102030;;;;
2022/07/18 04:14:00;;;;;;;0.2;0.2;;;;;;;17.9;97.7;102030;;;;
2022/07/18 04:15:00;;;;;;;0.2;0.2;;;;;;;17.9;97.7;102030;;;;
2022/07/18 04:16:00;;;;;;;0.2;0.2;;;;;;;17.8;99.9;102020;;;;
2022/07/18 04:17:00;;;;;;;0.2;0.2;;;;;;;17.8;99.9;102020;;;;
2022/07/18 04:18:00;;;;;;;0.2;0.2;;;;;;;17.9;99.0;102020;;;;
2022/07/18 04:19:00;;;;;;;0.2;0.2;;;;;;;17.9;99.0;102020;;;;
2022/07/18 04:20:00;;;;;;;0.2;0.2;;;;;;;17.9;95.0;102020;;;;
2022/07/18 04:21:00;;;;;;;0.2;0.2;;;;;;;17.9;95.0;102020;;;;
2022/07/18 04:22:00;;;;;;;0.3;0.3;;;;;;;17.9;98.4;102020;;;;
2022/07/18 04:23:01;;;;;;;0.3;0.3;;;;;;;17.9;98.4;102020;;;;
2022/07/18 04:24:00;;;;;;;0.3;0.3;;;;;;;17.9;97.3;102030;;;;
2022/07/18 04:25:00;;;;;;;0.3;0.3;;;;;;;17.9;97.3;102030;;;;
2022/07/18 04:26:01;;;;;;;0.3;0.3;;;;;;;18.0;93.8;102020;;;;
2022/07/18 04:27:00;;;;;;;0.3;0.3;;;;;;;18.0;93.8;102020;;;;
2022/07/18 04:28:00;;;;;;;0.3;0.3;;;;;;;17.9;97.4;102020;;;;
2022/07/18 04:29:00;;;;;;;0.3;0.3;;;;;;;17.9;97.4;102020;;;;
2022/07/18 04:30:00;;;;;;;0.3;0.3;;;;;;;17.9;98.4;102020;;;;
2022/07/18 04:31:00;;;;;;;0.3;0.3;;;;;;;17.9;98.4;102020;;;;
2022/07/18 04:32:00;;;;;;;0.3;0.3;;;;;;;18.0;96.8;102020;;;;
2022/07/18 04:33:02;;;;;;;0.3;0.3;;;;;;;18.0;96.8;102020;;;;
2022/07/18 04:34:00;;;;;;;0.3;0.3;;;;;;;17.9;99.9;102020;;;;
2022/07/18 04:35:00;;;;;;;0.3;0.3;;;;;;;17.9;99.9;102020;;;;
2022/07/18 04:36:00;;;;;;;0.3;0.3;;;;;;;17.9;99.5;102010;;;;
2022/07/18 04:37:00;;;;;;;0.3;0.3;;;;;;;17.9;99.5;102010;;;;
2022/07/18 04:38:00;;;;;;;0.3;0.3;;;;;;;17.9;100.0;102010;;;;
2022/07/18 04:39:00;;;;;;;0.3;0.3;;;;;;;17.9;100.0;102010;;;;
2022/07/18 04:40:00;;;;;;;0.3;0.3;;;;;;;17.9;96.9;102000;;;;
2022/07/18 04:41:00;;;;;;;0.3;0.3;;;;;;;17.9;96.9;102000;;;;
2022/07/18 04:42:00;;;;;;;0.3;0.3;;;;;;;18.0;98.5;102000;;;;
2022/07/18 04:43:00;;;;;;;0.3;0.3;;;;;;;18.0;98.5;102000;;;;
2022/07/18 04:44:00;;;;;;;0.3;0.3;;;;;;;18.0;99.3;102000;;;;
2022/07/18 04:45:00;;;;;;;0.3;0.3;;;;;;;18.0;99.3;102000;;;;
2022/07/18 04:46:00;;;;;;;0.3;0.3;;;;;;;18.0;96.1;102000;;;;
2022/07/18 04:47:00;;;;;;;0.3;0.3;;;;;;;18.0;96.1;102000;;;;
2022/07/18 04:48:00;;;;;;;0.3;0.3;;;;;;;18.0;98.2;102000;;;;
2022/07/18 04:49:00;;;;;;;0.3;0.3;;;;;;;18.0;98.2;102000;;;;
2022/07/18 04:50:00;;;;;;;0.3;0.3;;;;;;;18.0;98.4;102010;;;;
2022/07/18 04:51:00;;;;;;;0.3;0.3;;;;;;;18.0;98.4;102010;;;;
2022/07/18 04:52:00;;;;;;;0.3;0.3;;;;;;;18.1;96.0;102000;;;;
2022/07/18 04:53:00;;;;;;;0.3;0.3;;;;;;;18.1;96.0;102000;;;;
2022/07/18 04:54:00;;;;;;;0.3;0.3;;;;;;;18.1;99.8;102000;;;;
2022/07/18 04:55:00;;;;;;;0.3;0.3;;;;;;;18.1;99.8;102000;;;;
2022/07/18 04:56:00;;;;;;;0.3;0.3;;;;;;;18.1;98.9;102000;;;;
2022/07/18 04:57:00;;;;;;;0.3;0.3;;;;;;;18.1;98.9;102000;;;;
2022/07/18 04:58:00;;;;;;;0.3;0.3;;;;;;;18.1;99.4;102000;;;;
2022/07/18 04:59:00;;;;;;;0.3;0.3;;;;;;;18.1;99.4;102000;;;;
2022/07/18 05:00:01;;;;;;;0.3;0.3;;;;;;;18.0;100.0;102000;;;;
2022/07/18 05:01:00;;;;;;;0.3;0.3;;;;;;;18.0;100.0;102000;;;;
2022/07/18 05:02:00;;;;;;;0.4;0.4;;;;;;;18.1;100.0;101990;;;;
2022/07/18 05:03:00;;;;;;;0.4;0.4;;;;;;;18.1;100.0;101990;;;;
2022/07/18 05:04:00;;;;;;;0.4;0.4;;;;;;;18.2;97.9;102000;;;;
2022/07/18 05:05:00;;;;;;;0.4;0.4;;;;;;;18.2;97.9;102000;;;;
2022/07/18 05:06:00;;;;;;;0.4;0.4;;;;;;;18.2;97.6;102000;;;;
2022/07/18 05:07:00;;;;;;;0.4;0.4;;;;;;;18.2;97.6;102000;;;;
2022/07/18 05:08:00;;;;;;;0.4;0.4;;;;;;;18.4;99.4;102000;;;;
2022/07/18 05:09:00;;;;;;;0.4;0.4;;;;;;;18.4;99.4;102000;;;;
2022/07/18 05:10:00;;;;;;;0.4;0.4;;;;;;;18.3;99.2;102000;;;;
2022/07/18 05:11:00;;;;;;;0.4;0.4;;;;;;;18.3;99.2;102000;;;;
2022/07/18 05:12:00;;;;;;;0.4;0.4;;;;;;;18.3;97.7;102000;;;;
2022/07/18 05:13:01;;;;;;;0.4;0.4;;;;;;;18.3;97.7;102000;;;;
2022/07/18 05:14:00;;;;;;;0.4;0.4;;;;;;;18.5;100.0;102010;;;;
2022/07/18 05:15:03;;;;;;;0.4;0.4;;;;;;;18.5;100.0;102010;;;;
2022/07/18 05:16:00;;;;;;;0.4;0.4;;;;;;;18.4;99.2;102010;;;;
2022/07/18 05:17:00;;;;;;;0.4;0.4;;;;;;;18.4;99.2;102010;;;;
2022/07/18 05:18:00;;;;;;;0.4;0.4;;;;;;;18.5;100.0;102000;;;;
2022/07/18 05:19:00;;;;;;;0.4;0.4;;;;;;;18.5;100.0;102000;;;;
2022/07/18 05:20:00;;;;;;;0.4;0.4;;;;;;;18.5;99.6;102000;;;;
2022/07/18 05:21:00;;;;;;;0.4;0.4;;;;;;;18.5;99.6;102000;;;;
2022/07/18 05:22:00;;;;;;;1.0;1.0;;;;;;;18.6;100.0;102000;;;;
2022/07/18 05:23:00;;;;;;;1.0;1.0;;;;;;;18.6;100.0;102000;;;;
2022/07/18 05:24:00;;;;;;;1.0;1.0;;;;;;;18.7;98.7;102000;;;;
2022/07/18 05:25:00;;;;;;;1.0;1.0;;;;;;;18.7;98.7;102000;;;;
2022/07/18 05:26:00;;;;;;;1.0;1.0;;;;;;;18.8;99.4;102000;;;;
2022/07/18 05:27:00;;;;;;;1.0;1.0;;;;;;;18.8;99.4;102000;;;;
2022/07/18 05:28:00;;;;;;;1.0;1.0;;;;;;;18.9;99.5;102000;;;;
2022/07/18 05:29:00;;;;;;;1.0;1.0;;;;;;;18.9;99.5;102000;;;;
2022/07/18 05:30:00;;;;;;;1.0;1.0;;;;;;;19.0;98.8;102000;;;;
2022/07/18 05:31:00;;;;;;;1.0;1.0;;;;;;;19.0;98.8;102000;;;;
2022/07/18 05:32:01;;;;;;;1.0;1.0;;;;;;;19.1;97.1;102000;;;;
2022/07/18 05:33:00;;;;;;;1.0;1.0;;;;;;;19.1;97.1;102000;;;;
2022/07/18 05:34:00;;;;;;;1.0;1.0;;;;;;;19.0;97.7;102000;;;;
2022/07/18 05:35:00;;;;;;;1.0;1.0;;;;;;;19.0;97.7;102000;;;;
2022/07/18 05:36:00;;;;;;;1.0;1.0;;;;;;;19.2;96.2;102000;;;;
2022/07/18 05:37:00;;;;;;;1.0;1.0;;;;;;;19.2;96.2;102000;;;;
2022/07/18 05:38:00;;;;;;;1.0;1.0;;;;;;;19.2;95.2;102000;;;;
2022/07/18 05:39:00;;;;;;;1.0;1.0;;;;;;;19.2;95.2;102000;;;;
2022/07/18 05:40:00;;;;;;;1.0;1.0;;;;;;;19.3;95.1;102000;;;;
2022/07/18 05:41:00;;;;;;;1.0;1.0;;;;;;;19.3;95.1;102000;;;;
2022/07/18 05:42:00;;;;;;;0.3;0.3;;;;;;;19.3;93.5;102000;;;;
2022/07/18 05:43:00;;;;;;;0.3;0.3;;;;;;;19.3;93.5;102000;;;;
2022/07/18 05:44:00;;;;;;;0.3;0.3;;;;;;;19.4;94.9;102000;;;;
2022/07/18 05:45:00;;;;;;;0.3;0.3;;;;;;;19.4;94.9;102000;;;;
2022/07/18 05:46:00;;;;;;;0.3;0.3;;;;;;;19.5;94.9;101990;;;;
2022/07/18 05:47:00;;;;;;;0.3;0.3;;;;;;;19.5;94.9;101990;;;;
2022/07/18 05:48:00;;;;;;;0.3;0.3;;;;;;;19.5;93.4;101990;;;;
2022/07/18 05:49:00;;;;;;;0.3;0.3;;;;;;;19.5;93.4;101990;;;;
2022/07/18 05:50:00;;;;;;;0.3;0.3;;;;;;;19.5;95.1;102000;;;;
2022/07/18 05:51:00;;;;;;;0.3;0.3;;;;;;;19.5;95.1;102000;;;;
2022/07/18 05:52:00;;;;;;;0.3;0.3;;;;;;;19.8;92.9;102000;;;;
2022/07/18 05:53:00;;;;;;;0.3;0.3;;;;;;;19.8;92.9;102000;;;;
2022/07/18 05:54:00;;;;;;;0.3;0.3;;;;;;;19.7;93.1;102000;;;;
2022/07/18 05:55:00;;;;;;;0.3;0.3;;;;;;;19.7;93.1;102000;;;;
2022/07/18 05:56:00;;;;;;;0.3;0.3;;;;;;;19.8;92.4;102010;;;;
2022/07/18 05:57:00;;;;;;;0.3;0.3;;;;;;;19.8;92.4;102010;;;;
2022/07/18 05:58:00;;;;;;;0.3;0.3;;;;;;;19.9;92.5;102010;;;;
2022/07/18 05:59:00;;;;;;;0.3;0.3;;;;;;;19.9;92.5;102010;;;;
2022/07/18 06:00:00;;;;;;;0.3;0.3;;;;;;;19.9;92.1;102010;;;;
2022/07/18 06:01:00;;;;;;;0.3;0.3;;;;;;;19.9;92.1;102010;;;;
2022/07/18 06:02:00;;;;;;;0.7;0.7;;;;;;;20.0;90.6;102010;;;;
2022/07/18 06:03:00;;;;;;;0.7;0.7;;;;;;;20.0;90.6;102010;;;;
2022/07/18 06:04:00;;;;;;;0.7;0.7;;;;;;;20.0;91.8;102010;;;;
2022/07/18 06:05:10;;;;;;;0.7;0.7;;;;;;;20.0;91.8;102010;;;;
2022/07/18 06:06:00;;;;;;;0.7;0.7;;;;;;;20.2;90.9;102010;;;;
2022/07/18 06:07:00;;;;;;;0.7;0.7;;;;;;;20.2;90.9;102010;;;;
2022/07/18 06:08:00;;;;;;;0.7;0.7;;;;;;;20.2;91.4;102010;;;;
2022/07/18 06:09:00;;;;;;;0.7;0.7;;;;;;;20.2;91.4;102010;;;;
2022/07/18 06:10:00;;;;;;;0.7;0.7;;;;;;;20.2;90.8;102010;;;;
2022/07/18 06:11:03;;;;;;;0.7;0.7;;;;;;;20.2;90.8;102010;;;;
2022/07/18 06:12:00;;;;;;;0.7;0.7;;;;;;;20.3;90.3;102010;;;;
2022/07/18 06:13:00;;;;;;;0.7;0.7;;;;;;;20.3;90.3;102010;;;;
2022/07/18 06:14:02;;;;;;;0.7;0.7;;;;;;;20.5;89.2;102000;;;;
2022/07/18 06:15:00;;;;;;;0.7;0.7;;;;;;;20.5;89.2;102000;;;;
2022/07/18 06:16:00;;;;;;;0.7;0.7;;;;;;;20.6;89.0;102000;;;;
2022/07/18 06:17:00;;;;;;;0.7;0.7;;;;;;;20.6;89.0;102000;;;;
2022/07/18 06:18:00;;;;;;;0.7;0.7;;;;;;;20.6;87.9;102000;;;;
2022/07/18 06:19:00;;;;;;;0.7;0.7;;;;;;;20.6;87.9;102000;;;;
2022/07/18 06:20:00;;;;;;;0.7;0.7;;;;;;;20.6;89.0;102000;;;;
2022/07/18 06:21:01;;;;;;;0.7;0.7;;;;;;;20.6;89.0;102000;;;;
2022/07/18 06:22:00;;;;;;;0.5;0.5;;;;;;;20.8;88.4;102000;;;;
2022/07/18 06:23:00;;;;;;;0.5;0.5;;;;;;;20.8;88.4;102000;;;;
2022/07/18 06:24:00;;;;;;;0.5;0.5;;;;;;;20.7;88.7;102000;;;;
2022/07/18 06:25:01;;;;;;;0.5;0.5;;;;;;;20.7;88.7;102000;;;;
2022/07/18 06:26:00;;;;;;;0.5;0.5;;;;;;;20.9;87.7;102000;;;;
2022/07/18 06:27:01;;;;;;;0.5;0.5;;;;;;;20.9;87.7;102000;;;;
2022/07/18 06:28:00;;;;;;;0.5;0.5;;;;;;;20.9;87.6;101990;;;;
2022/07/18 06:29:00;;;;;;;0.5;0.5;;;;;;;20.9;87.6;101990;;;;
2022/07/18 06:30:00;;;;;;;0.5;0.5;;;;;;;20.9;88.2;101990;;;;